createdAt,value
2022-08-26T00:04:38.086Z,8.77
2022-08-26T00:09:42.805Z,8.17
2022-08-26T00:14:50.846Z,7.60
2022-08-26T00:19:54.315Z,8.47
2022-08-26T00:24:59.105Z,8.80
2022-08-26T00:30:02.554Z,7.97
2022-08-26T00:35:06.951Z,7.77
2022-08-26T00:40:14.447Z,8.37
2022-08-26T00:45:18.354Z,9.13
2022-08-26T00:50:24.146Z,8.33
2022-08-26T00:55:37.765Z,9.63
2022-08-26T01:00:41.733Z,9.83
2022-08-26T01:05:48.788Z,9.13
2022-08-26T01:10:54.940Z,9.57
2022-08-26T01:16:01.680Z,9.13
2022-08-26T01:21:09.150Z,9.30
2022-08-26T01:26:19.903Z,8.77
2022-08-26T01:31:25.009Z,8.70
2022-08-26T01:36:28.340Z,8.60
2022-08-26T01:41:33.631Z,9.70
2022-08-26T01:46:37.183Z,10.03
2022-08-26T01:51:41.247Z,9.40
2022-08-26T01:56:46.988Z,10.00
2022-08-26T02:01:51.320Z,9.67
2022-08-26T02:06:57.504Z,9.70
2022-08-26T02:12:04.036Z,9.63
2022-08-26T02:17:08.753Z,8.63
2022-08-26T02:22:15.076Z,9.53
2022-08-26T02:27:22.566Z,10.13
2022-08-26T02:32:26.195Z,10.67
2022-08-26T02:37:31.786Z,11.57
2022-08-26T02:42:39.111Z,11.53
2022-08-26T02:47:42.526Z,10.37
2022-08-26T02:52:45.910Z,9.83
2022-08-26T02:57:52.141Z,10.00
2022-08-26T03:02:55.590Z,9.77
2022-08-26T03:08:00.242Z,10.20
2022-08-26T03:13:07.885Z,9.00
2022-08-26T03:18:12.011Z,10.20
2022-08-26T03:23:15.393Z,11.57
2022-08-26T03:28:20.211Z,12.13
2022-08-26T03:34:49.676Z,11.93
2022-08-26T03:39:53.168Z,12.23
2022-08-26T03:44:57.252Z,12.40
2022-08-26T03:50:02.439Z,13.20
2022-08-26T03:55:06.558Z,14.50
2022-08-26T04:00:13.771Z,15.00
2022-08-26T04:05:19.622Z,13.00
2022-08-26T04:10:28.741Z,13.07
2022-08-26T04:15:32.761Z,13.10
2022-08-26T04:20:39.280Z,13.53
2022-08-26T04:25:42.680Z,13.27
2022-08-26T04:30:46.245Z,13.60
2022-08-26T04:35:51.467Z,14.83
2022-08-26T04:40:56.193Z,15.33
2022-08-26T04:46:01.582Z,14.37
2022-08-26T04:51:06.504Z,14.20
2022-08-26T04:56:09.961Z,12.57
2022-08-26T05:01:13.736Z,12.10
2022-08-26T05:06:20.677Z,12.17
2022-08-26T05:11:25.425Z,12.07
2022-08-26T05:16:29.347Z,13.13
2022-08-26T05:21:34.577Z,13.40
2022-08-26T05:26:37.963Z,14.60
2022-08-26T05:31:41.791Z,14.43
2022-08-26T05:36:46.493Z,14.27
2022-08-26T05:41:49.892Z,14.03
2022-08-26T05:46:53.426Z,14.50
2022-08-26T05:51:58.178Z,14.60
2022-08-26T05:57:01.572Z,14.43
2022-08-26T06:02:05.118Z,13.73
2022-08-26T06:07:11.562Z,13.57
2022-08-26T06:12:16.415Z,12.23
2022-08-26T06:17:21.910Z,13.03
2022-08-26T06:22:45.495Z,12.20
2022-08-26T06:27:49.018Z,12.20
2022-08-26T06:32:52.546Z,12.60
2022-08-26T06:37:57.751Z,10.63
2022-08-26T06:43:01.041Z,12.60
2022-08-26T06:48:05.029Z,11.30
2022-08-26T06:53:12.887Z,12.03
2022-08-26T06:58:16.326Z,11.67
2022-08-26T07:03:19.698Z,11.53
2022-08-26T07:08:24.747Z,11.65
2022-08-26T07:13:30.601Z,12.80
2022-08-26T07:18:34.817Z,11.52
2022-08-26T07:23:39.772Z,10.98
2022-08-26T07:28:44.607Z,9.90
2022-08-26T07:33:48.452Z,9.95
2022-08-26T07:38:53.571Z,8.25
2022-08-26T07:43:56.971Z,7.57
2022-08-26T07:49:00.547Z,7.82
2022-08-26T07:54:05.616Z,7.70
2022-08-26T07:59:13.719Z,8.00
2022-08-26T08:04:21.895Z,7.13
2022-08-26T08:09:31.061Z,6.85
2022-08-26T08:14:34.711Z,7.72
2022-08-26T08:19:39.229Z,6.90
2022-08-26T08:24:44.322Z,5.95
2022-08-26T08:29:47.946Z,6.35
2022-08-26T08:34:52.130Z,6.25
2022-08-26T08:39:56.970Z,6.93
2022-08-26T08:45:03.294Z,6.50
2022-08-26T08:50:10.666Z,6.95
2022-08-26T08:55:18.325Z,6.78
2022-08-26T09:00:30.436Z,6.80
2022-08-26T09:05:40.273Z,6.18
2022-08-26T09:10:48.387Z,6.30
2022-08-26T09:15:56.543Z,6.97
2022-08-26T09:21:02.148Z,6.68
2022-08-26T09:26:14.784Z,6.40
2022-08-26T09:31:21.501Z,5.90
2022-08-26T09:36:39.169Z,6.00
2022-08-26T09:41:46.051Z,5.75
2022-08-26T09:46:53.782Z,6.68
2022-08-26T09:52:21.189Z,6.35
2022-08-26T09:57:28.622Z,6.13
2022-08-26T10:02:47.561Z,5.75
2022-08-26T10:07:52.992Z,4.22
2022-08-26T10:13:03.252Z,5.22
2022-08-26T10:18:11.039Z,5.25
2022-08-26T10:23:18.129Z,5.30
2022-08-26T10:28:27.123Z,6.10
2022-08-26T10:33:30.526Z,5.40
2022-08-26T10:38:35.757Z,6.18
2022-08-26T10:43:44.391Z,5.35
2022-08-26T10:48:48.931Z,6.22
2022-08-26T10:53:58.947Z,6.35
2022-08-26T10:59:12.359Z,6.25
2022-08-26T11:04:34.988Z,6.53
2022-08-26T11:09:45.495Z,6.95
2022-08-26T11:14:58.749Z,6.13
2022-08-26T11:20:08.989Z,6.20
2022-08-26T11:25:13.692Z,5.60
2022-08-26T11:30:32.009Z,5.57
2022-08-26T11:35:52.252Z,5.97
2022-08-26T11:41:03.808Z,5.82
2022-08-26T11:46:09.195Z,5.78
2022-08-26T11:51:21.717Z,6.50
2022-08-26T11:56:31.576Z,6.45
2022-08-26T12:01:36.774Z,5.97
2022-08-26T12:06:46.696Z,5.68
2022-08-26T12:11:50.269Z,5.10
2022-08-26T12:16:54.607Z,6.15
2022-08-26T12:22:02.190Z,5.45
2022-08-26T12:27:11.233Z,5.57
2022-08-26T12:32:18.531Z,6.25
2022-08-26T12:37:23.442Z,8.05
2022-08-26T12:42:41.487Z,6.88
2022-08-26T12:47:46.634Z,7.35
2022-08-26T12:52:57.288Z,6.68
2022-08-26T12:58:31.801Z,4.70
2022-08-26T13:03:43.550Z,4.13
2022-08-26T13:08:48.839Z,4.32
2022-08-26T13:13:53.646Z,4.30
2022-08-26T13:18:59.253Z,6.23
2022-08-26T13:24:06.274Z,5.93
2022-08-26T13:29:10.602Z,6.20
2022-08-26T13:34:15.729Z,6.43
2022-08-26T13:39:21.587Z,6.63
2022-08-26T13:44:25.022Z,6.47
2022-08-26T13:49:28.547Z,5.70
2022-08-26T13:54:33.422Z,6.17
2022-08-26T13:59:36.822Z,5.83
2022-08-26T14:04:42.024Z,6.40
2022-08-26T14:09:46.719Z,6.90
2022-08-26T14:14:50.242Z,7.17
2022-08-26T14:19:53.930Z,7.03
2022-08-26T14:24:58.777Z,6.57
2022-08-26T14:30:02.284Z,6.27
2022-08-26T14:35:05.964Z,6.57
2022-08-26T14:40:14.119Z,6.63
2022-08-26T14:45:18.579Z,7.00
2022-08-26T14:50:23.013Z,6.70
2022-08-26T14:55:27.837Z,6.50
2022-08-26T15:00:31.800Z,6.78
2022-08-26T15:05:35.243Z,6.40
2022-08-26T15:10:40.112Z,6.63
2022-08-26T15:15:43.522Z,5.78
2022-08-26T15:20:47.114Z,5.75
2022-08-26T15:25:51.829Z,6.45
2022-08-26T15:30:55.306Z,6.30
2022-08-26T15:36:00.517Z,6.43
2022-08-26T15:41:06.198Z,6.18
2022-08-26T15:46:11.996Z,6.30
2022-08-26T15:51:20.868Z,6.45
2022-08-26T15:56:27.604Z,6.03
2022-08-26T16:01:32.665Z,6.03
2022-08-26T16:06:37.559Z,6.03
2022-08-26T16:11:42.346Z,5.93
2022-08-26T16:16:45.793Z,5.80
2022-08-26T16:21:50.813Z,4.88
2022-08-26T16:26:55.641Z,5.75
2022-08-26T16:31:59.063Z,6.40
2022-08-26T16:37:02.589Z,5.97
2022-08-26T16:42:07.773Z,5.20
2022-08-26T16:47:12.283Z,4.47
2022-08-26T16:52:15.722Z,4.22
2022-08-26T16:57:20.595Z,5.10
2022-08-26T17:02:24.079Z,5.28
2022-08-26T17:07:28.684Z,4.93
2022-08-26T17:12:33.447Z,4.10
2022-08-26T17:17:36.886Z,4.57
2022-08-26T17:22:41.315Z,4.47
2022-08-26T17:27:46.307Z,4.35
2022-08-26T17:32:49.792Z,4.03
2022-08-26T17:37:53.287Z,4.00
2022-08-26T17:42:58.834Z,3.87
2022-08-26T17:48:02.245Z,3.53
2022-08-26T17:53:05.613Z,4.28
2022-08-26T17:58:10.489Z,3.80
2022-08-26T18:03:19.213Z,4.37
2022-08-26T18:08:22.573Z,4.70
2022-08-26T18:13:27.400Z,4.43
2022-08-26T18:18:31.925Z,4.63
2022-08-26T18:23:38.400Z,5.00
2022-08-26T18:28:43.168Z,4.40
2022-08-26T18:33:46.864Z,4.50
2022-08-26T18:38:50.759Z,4.10
2022-08-26T18:43:55.920Z,4.27
2022-08-26T18:48:59.369Z,4.37
2022-08-26T18:54:05.659Z,4.77
2022-08-26T18:59:10.700Z,5.33
2022-08-26T19:04:15.564Z,5.07
2022-08-26T19:09:19.413Z,5.43
2022-08-26T19:14:26.063Z,5.10
2022-08-26T19:19:29.439Z,4.90
2022-08-26T19:24:33.005Z,4.87
2022-08-26T19:29:38.189Z,5.07
2022-08-26T19:34:41.713Z,4.60
2022-08-26T19:39:45.094Z,4.47
2022-08-26T19:45:07.236Z,4.10
2022-08-26T19:50:15.223Z,5.27
2022-08-26T19:55:19.584Z,5.53
2022-08-26T20:00:25.998Z,4.80
2022-08-26T20:05:29.778Z,4.10
2022-08-26T20:10:35.464Z,4.13
2022-08-26T20:15:40.151Z,5.30
2022-08-26T20:21:01.148Z,5.80
2022-08-26T20:26:05.094Z,5.93
2022-08-26T20:31:10.029Z,4.70
2022-08-26T20:36:16.226Z,5.80
2022-08-26T20:41:19.948Z,5.83
2022-08-26T20:46:25.290Z,6.03
2022-08-26T20:51:29.342Z,5.80
2022-08-26T20:56:32.783Z,5.90
2022-08-26T21:01:41.950Z,5.77
2022-08-26T21:06:52.130Z,5.63
2022-08-26T21:11:56.438Z,5.27
2022-08-26T21:17:01.259Z,4.97
2022-08-26T21:22:05.045Z,6.00
2022-08-26T21:27:08.463Z,4.93
2022-08-26T21:32:13.279Z,5.50
2022-08-26T21:37:19.178Z,5.30
2022-08-26T21:42:22.559Z,5.20
2022-08-26T21:47:27.469Z,5.30
2022-08-26T21:52:30.992Z,5.03
2022-08-26T21:57:34.868Z,4.37
2022-08-26T22:02:39.772Z,4.60
2022-08-26T22:07:43.161Z,4.63
2022-08-26T22:12:46.953Z,6.80
2022-08-26T22:17:51.928Z,4.77
2022-08-26T22:22:55.314Z,4.90
2022-08-26T22:27:58.788Z,5.47
2022-08-26T22:33:03.918Z,4.60
2022-08-26T22:38:07.263Z,4.70
2022-08-26T22:43:10.819Z,4.57
2022-08-26T22:48:17.053Z,4.77
2022-08-26T22:53:20.533Z,3.90
2022-08-26T22:58:30.446Z,4.50
2022-08-26T23:03:36.153Z,4.27
2022-08-26T23:08:40.054Z,4.40
2022-08-26T23:13:43.440Z,4.10
2022-08-26T23:18:48.202Z,6.03
2022-08-26T23:23:52.285Z,6.87
2022-08-26T23:28:55.653Z,5.07
2022-08-26T23:34:18.288Z,6.30
2022-08-26T23:39:21.888Z,7.20
2022-08-26T23:44:26.741Z,8.73
2022-08-26T23:49:31.455Z,5.23
2022-08-26T23:54:34.879Z,5.83
2022-08-26T23:59:38.804Z,4.97
